Time;durP1;ratioP1;P1;durP2;ratioP2;P2;SDS_P1;SDS_P2;PMS_P1;PMS_P2;Temp;Humidity;BMP_temperature;BMP_pressure;BME280_temperature;BME280_humidity;BME280_pressure;Samples;Min_cycle;Max_cycle;Signal;HPM_P1;HPM_P2
2022/01/27 00:05:33;;;;;;;54.58;26.23;;;4.30;99.90;;;;;;5109924;28;20047;-51
2022/01/27 00:08:11;;;;;;;54.05;28.65;;;4.30;99.90;;;;;;5109074;28;20116;-52
2022/01/27 00:13:13;;;;;;;54.35;25.20;;;4.30;99.90;;;;;;5108241;28;20032;-54
2022/01/27 00:15:40;;;;;;;53.40;26.20;;;4.40;99.90;;;;;;5109414;28;20012;-52
2022/01/27 00:18:13;;;;;;;56.17;27.45;;;4.30;99.90;;;;;;5108165;28;20032;-53
2022/01/27 00:20:39;;;;;;;52.70;26.77;;;4.30;99.90;;;;;;5107714;28;20475;-52
2022/01/27 00:23:05;;;;;;;51.80;26.13;;;4.30;99.90;;;;;;5107462;28;20051;-54
2022/01/27 00:25:30;;;;;;;57.38;26.00;;;4.30;99.90;;;;;;5108572;28;20015;-52
2022/01/27 00:27:56;;;;;;;51.45;25.35;;;4.30;99.90;;;;;;5108355;28;20483;-58
2022/01/27 00:30:22;;;;;;;57.17;27.40;;;4.30;99.90;;;;;;5108669;28;20556;-53
2022/01/27 00:32:47;;;;;;;47.00;26.17;;;4.30;99.90;;;;;;5107244;28;20060;-53
2022/01/27 00:35:13;;;;;;;52.25;26.48;;;4.30;99.90;;;;;;5107731;28;20047;-54
2022/01/27 00:37:38;;;;;;;55.17;28.80;;;4.40;99.90;;;;;;5108613;28;20031;-57
2022/01/27 00:40:06;;;;;;;56.47;28.63;;;4.30;99.90;;;;;;5108664;28;20499;-53
2022/01/27 00:42:32;;;;;;;66.63;29.38;;;4.30;99.90;;;;;;5107104;28;20050;-53
2022/01/27 00:44:58;;;;;;;51.42;26.73;;;4.40;99.90;;;;;;5107277;28;20048;-54
2022/01/27 00:47:24;;;;;;;46.15;26.70;;;4.40;99.90;;;;;;5108732;28;20084;-51
2022/01/27 00:49:49;;;;;;;53.95;27.50;;;4.40;99.90;;;;;;5108630;28;20475;-53
2022/01/27 00:52:23;;;;;;;62.65;29.17;;;4.40;99.90;;;;;;5107653;28;20031;-55
2022/01/27 00:54:51;;;;;;;55.45;28.30;;;4.40;99.90;;;;;;5107084;28;20028;-49
2022/01/27 01:00:03;;;;;;;59.58;28.00;;;4.40;99.90;;;;;;5107594;28;20046;-51
2022/01/27 01:07:39;;;;;;;56.80;28.70;;;4.40;99.90;;;;;;5107696;28;20023;-55
2022/01/27 01:15:27;;;;;;;55.35;29.88;;;4.40;99.90;;;;;;5108622;28;20039;-58
2022/01/27 01:34:25;;;;;;;65.10;30.80;;;4.50;99.90;;;;;;5107383;28;20157;-56
2022/01/27 01:37:04;;;;;;;61.17;31.60;;;4.50;99.90;;;;;;5106928;28;20023;-53
2022/01/27 01:39:33;;;;;;;61.28;31.35;;;4.50;99.90;;;;;;5107478;28;20020;-57
2022/01/27 01:42:00;;;;;;;52.00;31.75;;;4.50;99.90;;;;;;5106730;28;20015;-58
2022/01/27 01:44:26;;;;;;;65.78;32.67;;;4.40;99.90;;;;;;5107445;28;20532;-56
2022/01/27 01:46:53;;;;;;;62.92;32.42;;;4.50;99.90;;;;;;5107798;28;20146;-53
2022/01/27 01:49:19;;;;;;;65.05;32.70;;;4.50;99.90;;;;;;5106664;28;20036;-57
2022/01/27 01:51:45;;;;;;;64.13;33.30;;;4.50;99.90;;;;;;5107754;28;20030;-57
2022/01/27 01:54:12;;;;;;;61.58;33.33;;;4.50;99.90;;;;;;5107161;28;20110;-58
2022/01/27 01:56:40;;;;;;;65.75;35.80;;;4.50;99.90;;;;;;5107760;28;20023;-56
2022/01/27 01:59:06;;;;;;;69.35;35.85;;;4.50;99.90;;;;;;5103908;28;20019;-58
2022/01/27 02:01:33;;;;;;;64.15;33.33;;;4.40;99.90;;;;;;5105207;28;20102;-57
2022/01/27 02:04:04;;;;;;;58.38;33.38;;;4.50;99.90;;;;;;5105192;28;20038;-56
2022/01/27 02:06:38;;;;;;;68.20;34.47;;;4.50;99.90;;;;;;5107699;28;20612;-56
2022/01/27 02:09:22;;;;;;;61.90;32.58;;;4.50;99.90;;;;;;5106623;28;20092;-58
2022/01/27 02:20:02;;;;;;;58.58;30.67;;;4.50;99.90;;;;;;5106519;28;20856;-54
2022/01/27 02:22:28;;;;;;;55.78;32.20;;;4.50;99.90;;;;;;5105140;28;20114;-58
2022/01/27 02:24:54;;;;;;;60.15;32.30;;;4.50;99.90;;;;;;5107743;28;20222;-55
2022/01/27 02:27:20;;;;;;;54.20;31.73;;;4.60;99.90;;;;;;5106266;28;20040;-53
2022/01/27 02:29:46;;;;;;;53.05;28.80;;;4.50;99.90;;;;;;5107414;28;20034;-58
2022/01/27 02:32:13;;;;;;;55.58;30.67;;;4.50;99.90;;;;;;5105241;28;20032;-55
2022/01/27 02:34:40;;;;;;;55.70;30.17;;;4.60;99.90;;;;;;5106474;28;20111;-53
2022/01/27 02:37:07;;;;;;;50.72;28.20;;;4.60;99.90;;;;;;5106653;28;20031;-54
2022/01/27 02:39:32;;;;;;;51.45;29.63;;;4.60;99.90;;;;;;5107226;28;20020;-55
2022/01/27 02:42:05;;;;;;;49.97;29.30;;;4.60;99.90;;;;;;5106875;28;20054;-55
2022/01/27 02:44:45;;;;;;;49.30;29.60;;;4.60;99.90;;;;;;5106640;28;20103;-57
2022/01/27 02:47:16;;;;;;;47.80;27.45;;;4.60;99.90;;;;;;5105838;28;20513;-54
2022/01/27 02:49:42;;;;;;;50.95;27.90;;;4.60;99.90;;;;;;5104760;28;20027;-55
2022/01/27 02:52:08;;;;;;;53.28;28.60;;;4.60;99.90;;;;;;5103877;28;20032;-55
2022/01/27 02:54:34;;;;;;;46.70;28.17;;;4.60;99.90;;;;;;5106165;28;20035;-56
2022/01/27 02:57:00;;;;;;;50.80;28.30;;;4.60;99.90;;;;;;5099974;28;20036;-56
2022/01/27 02:59:26;;;;;;;42.97;27.02;;;4.60;99.90;;;;;;5109888;28;20035;-53
2022/01/27 03:01:52;;;;;;;49.22;28.00;;;4.60;99.90;;;;;;5110129;28;20035;-52
2022/01/27 03:04:19;;;;;;;46.30;27.70;;;4.60;99.90;;;;;;5109495;28;20054;-53
2022/01/27 03:06:46;;;;;;;52.88;29.77;;;4.60;99.90;;;;;;5110690;28;20156;-50
2022/01/27 03:09:12;;;;;;;43.85;25.58;;;4.60;99.90;;;;;;5109263;28;20156;-51
2022/01/27 03:11:47;;;;;;;46.50;27.10;;;4.70;99.90;;;;;;5110338;28;20047;-53
2022/01/27 03:14:16;;;;;;;47.13;27.83;;;4.70;99.90;;;;;;5109203;28;20099;-51
2022/01/27 03:16:42;;;;;;;50.20;30.30;;;4.70;99.90;;;;;;5110191;28;20031;-53
2022/01/27 03:19:08;;;;;;;45.25;27.52;;;4.70;99.90;;;;;;5109472;28;20523;-56
2022/01/27 03:21:34;;;;;;;44.95;26.92;;;4.60;99.90;;;;;;5110549;28;20107;-58
2022/01/27 03:23:59;;;;;;;52.50;28.65;;;4.60;99.90;;;;;;5110206;28;20031;-57
2022/01/27 03:26:26;;;;;;;49.90;28.85;;;4.60;99.90;;;;;;5109681;28;20084;-55
2022/01/27 03:28:52;;;;;;;45.88;27.83;;;4.60;99.90;;;;;;5109174;28;20103;-56
2022/01/27 03:31:17;;;;;;;45.88;28.05;;;4.60;99.90;;;;;;5108895;28;20111;-52
2022/01/27 03:33:43;;;;;;;50.88;28.88;;;4.60;99.90;;;;;;5109604;28;20111;-55
2022/01/27 03:36:11;;;;;;;47.75;27.70;;;4.60;99.90;;;;;;5109819;28;20016;-57
2022/01/27 03:38:36;;;;;;;50.65;28.60;;;4.50;99.90;;;;;;5109792;28;20096;-53
2022/01/27 03:41:07;;;;;;;52.75;31.00;;;4.50;99.90;;;;;;5110258;28;20024;-57
2022/01/27 03:43:35;;;;;;;53.10;28.83;;;4.50;99.90;;;;;;5109788;28;20019;-53
2022/01/27 03:46:01;;;;;;;49.42;28.92;;;4.50;99.90;;;;;;5109491;28;20015;-55
2022/01/27 03:48:27;;;;;;;49.42;28.70;;;4.50;99.90;;;;;;5109679;28;20047;-52
2022/01/27 03:50:53;;;;;;;54.85;30.10;;;4.40;99.90;;;;;;5109854;28;20058;-55
2022/01/27 03:53:18;;;;;;;58.40;29.48;;;4.40;99.90;;;;;;5109943;28;20565;-59
2022/01/27 03:55:44;;;;;;;53.95;30.60;;;4.40;99.90;;;;;;5110092;28;20051;-51
2022/01/27 03:58:10;;;;;;;46.63;29.23;;;4.40;99.90;;;;;;5108383;28;20019;-52
2022/01/27 04:00:36;;;;;;;54.97;29.02;;;4.40;99.90;;;;;;5109224;28;20106;-58
2022/01/27 04:03:06;;;;;;;57.22;31.17;;;4.40;99.90;;;;;;5099150;28;20011;-57
2022/01/27 04:05:50;;;;;;;55.35;29.25;;;4.40;99.90;;;;;;5108456;28;20015;-57
2022/01/27 04:08:16;;;;;;;50.60;28.83;;;4.40;99.90;;;;;;5108591;28;20050;-59
2022/01/27 04:10:42;;;;;;;48.83;28.33;;;4.30;99.90;;;;;;5109158;28;20547;-56
2022/01/27 04:13:08;;;;;;;42.75;28.02;;;4.30;99.90;;;;;;5108219;28;20020;-53
2022/01/27 04:15:35;;;;;;;46.97;30.08;;;4.30;99.90;;;;;;5109288;28;20154;-57
2022/01/27 04:18:01;;;;;;;56.65;27.90;;;4.40;99.90;;;;;;5108966;28;20039;-58
2022/01/27 04:20:27;;;;;;;57.00;27.45;;;4.30;99.90;;;;;;5109059;28;20898;-54
2022/01/27 04:22:52;;;;;;;44.88;27.02;;;4.30;99.90;;;;;;5108502;28;20499;-51
2022/01/27 04:25:18;;;;;;;48.20;27.80;;;4.30;99.90;;;;;;5107876;28;20040;-57
2022/01/27 04:27:49;;;;;;;55.80;29.80;;;4.30;99.90;;;;;;5109742;28;20032;-57
2022/01/27 04:30:17;;;;;;;51.03;27.75;;;4.30;99.90;;;;;;5107614;28;20031;-53
2022/01/27 04:32:53;;;;;;;54.15;28.75;;;4.30;99.90;;;;;;5108464;28;20051;-55
2022/01/27 04:35:21;;;;;;;51.38;27.63;;;4.40;99.90;;;;;;5107607;28;20047;-54
2022/01/27 04:38:38;;;;;;;50.10;28.67;;;4.30;99.90;;;;;;5109047;28;20076;-54
2022/01/27 04:43:41;;;;;;;48.15;26.42;;;4.30;99.90;;;;;;5108528;28;20085;-54
2022/01/27 04:48:52;;;;;;;47.42;25.88;;;4.30;99.90;;;;;;5108262;28;20049;-57
2022/01/27 04:51:21;;;;;;;44.95;26.30;;;4.30;99.90;;;;;;5107092;28;20031;-51
2022/01/27 04:53:54;;;;;;;46.38;26.25;;;4.30;99.90;;;;;;5107737;28;20018;-56
2022/01/27 04:56:21;;;;;;;43.58;26.00;;;4.30;99.90;;;;;;5108067;28;20088;-55
2022/01/27 04:58:52;;;;;;;51.08;26.85;;;4.30;99.90;;;;;;5106833;28;20012;-52
2022/01/27 05:01:20;;;;;;;43.45;26.23;;;4.30;99.90;;;;;;5107399;28;20019;-55
2022/01/27 05:03:52;;;;;;;44.22;26.08;;;4.30;99.90;;;;;;5107220;28;20016;-50
2022/01/27 05:06:17;;;;;;;47.35;25.95;;;4.30;99.90;;;;;;5107105;28;20020;-53
2022/01/27 05:08:43;;;;;;;40.47;24.55;;;4.30;99.90;;;;;;5108422;28;20015;-52
2022/01/27 05:14:14;;;;;;;41.80;24.85;;;4.30;99.90;;;;;;5107820;28;20391;-53
2022/01/27 05:16:27;;;;;;;39.70;24.63;;;4.30;99.90;;;;;;5123353;22;20159;-52
2022/01/27 05:18:54;;;;;;;43.30;23.48;;;4.30;99.90;;;;;;5098772;28;20543;-55
2022/01/27 05:21:20;;;;;;;35.95;22.92;;;4.30;99.90;;;;;;5098439;28;20016;-54
2022/01/27 05:23:46;;;;;;;36.33;21.90;;;4.30;99.90;;;;;;5080940;28;20390;-51
2022/01/27 05:26:11;;;;;;;42.10;24.05;;;4.30;99.90;;;;;;5092181;28;20028;-55
2022/01/27 05:28:37;;;;;;;31.23;22.33;;;4.30;99.90;;;;;;5078388;28;20020;-55
2022/01/27 05:31:05;;;;;;;34.33;22.67;;;4.30;99.90;;;;;;5078959;28;20027;-56
2022/01/27 05:33:31;;;;;;;36.22;22.08;;;4.30;99.90;;;;;;5078383;28;20013;-53
2022/01/27 05:35:57;;;;;;;38.30;22.88;;;4.30;99.90;;;;;;5060121;28;20058;-53
2022/01/27 05:38:22;;;;;;;38.70;23.10;;;4.30;99.90;;;;;;5076776;28;20081;-54
2022/01/27 05:40:48;;;;;;;38.08;23.83;;;4.30;99.90;;;;;;5078334;28;20107;-53
2022/01/27 05:43:14;;;;;;;39.88;22.52;;;4.30;99.90;;;;;;5078569;28;20021;-55
2022/01/27 05:45:40;;;;;;;35.28;21.73;;;4.30;99.90;;;;;;5077786;28;20484;-51
2022/01/27 05:48:06;;;;;;;44.85;20.70;;;4.30;99.90;;;;;;5078526;28;20247;-55
2022/01/27 05:50:33;;;;;;;32.47;21.13;;;4.30;99.90;;;;;;5060242;28;20107;-54
2022/01/27 05:52:58;;;;;;;33.05;20.90;;;4.30;99.90;;;;;;5077025;28;20020;-58
2022/01/27 05:55:24;;;;;;;35.80;21.05;;;4.30;99.90;;;;;;5077557;28;20035;-57
2022/01/27 05:57:50;;;;;;;32.42;19.80;;;4.30;99.90;;;;;;5060006;28;20067;-54
2022/01/27 06:00:16;;;;;;;35.50;21.02;;;4.30;99.90;;;;;;5077249;28;20136;-57
2022/01/27 06:02:42;;;;;;;34.30;19.73;;;4.30;99.90;;;;;;5059842;28;20392;-53
2022/01/27 06:05:08;;;;;;;29.85;17.90;;;4.30;99.90;;;;;;5078420;28;20024;-54
2022/01/27 06:07:33;;;;;;;30.90;18.20;;;4.30;99.90;;;;;;5077092;28;20472;-56
2022/01/27 06:09:59;;;;;;;33.40;19.77;;;4.30;99.90;;;;;;5077478;28;20038;-54
2022/01/27 06:12:25;;;;;;;28.90;18.58;;;4.30;99.90;;;;;;5077013;28;20032;-57
2022/01/27 06:14:50;;;;;;;32.13;18.55;;;4.30;99.90;;;;;;5077718;28;20078;-57
2022/01/27 06:17:16;;;;;;;27.33;17.27;;;4.30;99.90;;;;;;5077044;28;20033;-53
2022/01/27 06:19:46;;;;;;;28.52;18.20;;;4.30;99.90;;;;;;5077773;28;20149;-57
2022/01/27 06:22:13;;;;;;;30.33;18.10;;;4.40;99.90;;;;;;5077970;28;20491;-54
2022/01/27 06:24:40;;;;;;;31.48;17.38;;;4.40;99.90;;;;;;5078483;28;20031;-54
2022/01/27 06:27:05;;;;;;;30.13;17.42;;;4.30;99.90;;;;;;5078037;28;20027;-54
2022/01/27 06:29:31;;;;;;;26.58;17.33;;;4.30;99.90;;;;;;5079126;28;20016;-57
2022/01/27 06:31:57;;;;;;;28.45;18.10;;;4.30;99.90;;;;;;5081778;28;20082;-55
2022/01/27 06:34:22;;;;;;;29.58;17.17;;;4.40;99.90;;;;;;5080608;28;20089;-58
2022/01/27 06:36:48;;;;;;;30.55;15.88;;;4.40;99.90;;;;;;5080897;28;20036;-53
2022/01/27 06:39:13;;;;;;;29.08;17.23;;;4.40;99.90;;;;;;5081862;28;20099;-54
2022/01/27 06:41:39;;;;;;;22.40;14.98;;;4.40;99.90;;;;;;5081766;28;20028;-54
2022/01/27 06:44:05;;;;;;;27.63;17.33;;;4.40;99.90;;;;;;5081153;28;20365;-55
2022/01/27 06:46:32;;;;;;;26.05;17.23;;;4.30;99.90;;;;;;5082466;28;20051;-56
2022/01/27 06:48:58;;;;;;;30.25;17.70;;;4.40;99.90;;;;;;5081737;28;20375;-57
2022/01/27 06:51:26;;;;;;;24.67;15.95;;;4.40;99.90;;;;;;5062110;28;20024;-54
2022/01/27 06:53:52;;;;;;;27.73;17.20;;;4.40;99.90;;;;;;5081165;28;20088;-54
2022/01/27 06:56:17;;;;;;;27.23;16.75;;;4.40;99.90;;;;;;5082097;28;20484;-55
2022/01/27 06:58:43;;;;;;;32.17;18.77;;;4.30;99.90;;;;;;5081057;28;20462;-53
2022/01/27 07:01:08;;;;;;;28.05;16.30;;;4.40;99.90;;;;;;5061941;28;20028;-52
2022/01/27 07:03:34;;;;;;;26.58;15.93;;;4.40;99.90;;;;;;5080412;28;20024;-55
2022/01/27 07:05:59;;;;;;;24.58;15.70;;;4.40;99.90;;;;;;5063063;28;20024;-52
2022/01/27 07:08:25;;;;;;;29.73;17.85;;;4.40;99.90;;;;;;5081154;28;20075;-51
2022/01/27 07:10:50;;;;;;;26.80;17.38;;;4.40;99.90;;;;;;5081427;28;20483;-53
2022/01/27 07:13:16;;;;;;;28.20;16.65;;;4.40;99.90;;;;;;5080540;28;20036;-56
2022/01/27 07:15:42;;;;;;;28.15;16.65;;;4.40;99.90;;;;;;5080510;28;20016;-56
2022/01/27 07:18:07;;;;;;;27.80;16.10;;;4.40;99.90;;;;;;5080202;28;20433;-55
2022/01/27 07:20:33;;;;;;;29.75;17.23;;;4.40;99.90;;;;;;5081625;28;20016;-63
2022/01/27 07:22:58;;;;;;;28.70;15.65;;;4.40;99.90;;;;;;5061451;28;20025;-58
2022/01/27 07:25:24;;;;;;;31.98;16.58;;;4.40;99.90;;;;;;5080962;28;20071;-62
2022/01/27 07:27:50;;;;;;;26.38;16.33;;;4.40;99.90;;;;;;5080447;28;20101;-55
2022/01/27 07:30:15;;;;;;;27.23;16.15;;;4.50;99.90;;;;;;5080413;28;20021;-55
2022/01/27 07:32:41;;;;;;;27.70;17.10;;;4.50;99.90;;;;;;5061664;28;20031;-53
2022/01/27 07:35:07;;;;;;;25.42;15.82;;;4.50;99.90;;;;;;5062661;28;20054;-53
2022/01/27 07:37:33;;;;;;;26.95;15.70;;;4.50;99.90;;;;;;5079700;28;20111;-53
2022/01/27 07:39:58;;;;;;;27.75;15.70;;;4.50;99.90;;;;;;5080122;28;20097;-58
2022/01/27 07:42:24;;;;;;;28.13;15.38;;;4.50;99.90;;;;;;5079515;28;20578;-55
2022/01/27 07:44:49;;;;;;;24.80;16.40;;;4.60;99.90;;;;;;5062465;28;20017;-54
2022/01/27 07:47:15;;;;;;;22.27;14.00;;;4.50;99.90;;;;;;5080381;28;20021;-54
2022/01/27 07:49:40;;;;;;;23.70;14.50;;;4.60;99.90;;;;;;5080319;28;20035;-54
2022/01/27 07:52:06;;;;;;;23.17;14.18;;;4.60;99.90;;;;;;5062315;28;20028;-56
2022/01/27 07:54:31;;;;;;;23.23;14.25;;;4.60;99.90;;;;;;5080088;28;20024;-58
2022/01/27 07:56:57;;;;;;;23.23;14.25;;;4.60;99.90;;;;;;5062036;28;20032;-58
2022/01/27 07:59:22;;;;;;;25.05;14.30;;;4.60;99.90;;;;;;5079069;28;20809;-56
2022/01/27 08:01:48;;;;;;;21.13;13.57;;;4.60;99.90;;;;;;5078738;28;20024;-54
2022/01/27 08:04:14;;;;;;;26.05;14.13;;;4.60;99.90;;;;;;5079899;28;20099;-56
2022/01/27 08:06:39;;;;;;;20.98;13.88;;;4.60;99.90;;;;;;5079250;28;20074;-56
2022/01/27 08:09:05;;;;;;;24.30;15.18;;;4.70;99.90;;;;;;5079615;28;20095;-58
2022/01/27 08:11:31;;;;;;;23.40;14.88;;;4.70;99.90;;;;;;5079607;28;20085;-56
2022/01/27 08:13:57;;;;;;;21.50;13.13;;;4.60;99.90;;;;;;5079400;28;20020;-55
2022/01/27 08:16:22;;;;;;;18.55;13.32;;;4.60;99.90;;;;;;5079307;28;20082;-52
2022/01/27 08:18:48;;;;;;;21.63;13.00;;;4.70;99.90;;;;;;5079122;28;20024;-54
2022/01/27 08:21:14;;;;;;;16.65;11.80;;;4.70;99.90;;;;;;5079845;28;20025;-58
2022/01/27 08:23:42;;;;;;;20.95;12.30;;;4.70;99.90;;;;;;5062146;28;20043;-59
2022/01/27 08:26:11;;;;;;;20.85;13.02;;;4.70;99.90;;;;;;5080284;28;20107;-59
2022/01/27 08:28:43;;;;;;;20.45;12.38;;;4.70;99.90;;;;;;5062126;28;20027;-57
2022/01/27 08:31:08;;;;;;;21.48;12.10;;;4.70;99.90;;;;;;5080123;28;20020;-54
2022/01/27 08:33:38;;;;;;;16.52;11.52;;;4.70;99.90;;;;;;5079039;28;20024;-53
2022/01/27 08:36:04;;;;;;;18.90;10.43;;;4.80;99.90;;;;;;5078937;28;20558;-52
2022/01/27 08:38:30;;;;;;;20.25;12.18;;;4.80;99.90;;;;;;5077458;28;20159;-56
2022/01/27 08:40:59;;;;;;;17.83;11.82;;;4.80;99.90;;;;;;5061174;28;20471;-57
2022/01/27 08:43:25;;;;;;;23.48;12.23;;;4.80;99.90;;;;;;5077384;28;20027;-57
2022/01/27 08:45:51;;;;;;;17.38;11.65;;;4.80;99.90;;;;;;5079804;28;20027;-54
2022/01/27 08:48:19;;;;;;;16.30;11.15;;;4.90;99.90;;;;;;5078817;28;20523;-56
2022/01/27 08:50:51;;;;;;;17.20;10.60;;;4.90;99.90;;;;;;5061447;28;20503;-56
2022/01/27 08:53:17;;;;;;;18.67;10.75;;;4.90;99.90;;;;;;5060986;28;20044;-55
2022/01/27 08:55:44;;;;;;;18.00;11.75;;;5.00;99.90;;;;;;5061175;28;20036;-55
2022/01/27 08:58:11;;;;;;;17.05;11.18;;;4.90;99.90;;;;;;5079815;28;20108;-57
2022/01/27 09:00:37;;;;;;;16.52;11.02;;;5.00;99.90;;;;;;5079941;28;20081;-56
2022/01/27 09:03:03;;;;;;;19.48;11.80;;;4.90;99.90;;;;;;5079112;28;20024;-55
2022/01/27 09:05:29;;;;;;;17.48;10.63;;;5.00;99.90;;;;;;5078473;28;20027;-57
2022/01/27 09:07:56;;;;;;;15.93;10.55;;;5.00;99.90;;;;;;5078967;28;20672;-58
2022/01/27 09:10:23;;;;;;;17.08;10.65;;;5.00;99.90;;;;;;5078780;28;20028;-52
2022/01/27 09:12:48;;;;;;;21.10;11.82;;;5.10;99.90;;;;;;5078842;28;20020;-57
2022/01/27 09:15:14;;;;;;;21.25;11.63;;;5.10;99.90;;;;;;5078083;28;20028;-56
2022/01/27 09:17:40;;;;;;;17.83;10.77;;;5.10;99.90;;;;;;5078396;28;20499;-55
2022/01/27 09:20:08;;;;;;;15.90;11.57;;;5.20;99.90;;;;;;5078644;28;20368;-57
2022/01/27 09:22:36;;;;;;;19.83;11.00;;;5.20;99.90;;;;;;5077791;28;20016;-55
2022/01/27 09:25:09;;;;;;;17.08;11.27;;;5.20;99.90;;;;;;5078599;28;20628;-53
2022/01/27 09:27:35;;;;;;;16.63;11.20;;;5.30;99.90;;;;;;5060502;28;20024;-55
2022/01/27 09:30:01;;;;;;;18.05;10.35;;;5.30;99.90;;;;;;5078634;28;20561;-55
2022/01/27 09:32:26;;;;;;;20.35;10.63;;;5.30;99.90;;;;;;5060190;28;20036;-55
2022/01/27 09:34:53;;;;;;;14.68;9.77;;;5.30;99.90;;;;;;5060402;28;20591;-54
2022/01/27 09:37:19;;;;;;;16.23;9.00;;;5.30;99.90;;;;;;5078469;28;20032;-55
2022/01/27 09:39:45;;;;;;;15.48;8.23;;;5.40;99.90;;;;;;5077904;28;20438;-54
2022/01/27 09:42:12;;;;;;;11.80;8.38;;;5.40;99.90;;;;;;5077214;28;20486;-54
2022/01/27 09:44:40;;;;;;;13.02;8.43;;;5.40;99.90;;;;;;5079218;28;20043;-56
2022/01/27 09:47:14;;;;;;;12.70;8.25;;;5.50;99.90;;;;;;5078419;28;20399;-55
2022/01/27 09:49:48;;;;;;;12.70;7.97;;;5.50;99.90;;;;;;5061221;28;20032;-56
2022/01/27 09:52:15;;;;;;;12.98;8.38;;;5.50;99.90;;;;;;5077599;28;20047;-55
2022/01/27 09:54:41;;;;;;;14.93;7.63;;;5.50;99.90;;;;;;5077386;28;20372;-57
2022/01/27 09:57:07;;;;;;;11.30;7.45;;;5.50;99.90;;;;;;5078314;28;20029;-55
2022/01/27 09:59:33;;;;;;;16.60;8.00;;;5.60;99.90;;;;;;5079217;28;20097;-54
2022/01/27 10:02:02;;;;;;;12.43;7.53;;;5.60;99.90;;;;;;5078411;28;20113;-56
2022/01/27 10:04:46;;;;;;;12.73;7.15;;;5.60;99.90;;;;;;5079671;28;20027;-54
2022/01/27 10:07:14;;;;;;;13.32;6.93;;;5.60;99.90;;;;;;5082162;28;20020;-57
2022/01/27 10:10:00;;;;;;;14.73;8.48;;;5.60;99.90;;;;;;5082666;28;20035;-56
2022/01/27 10:12:35;;;;;;;12.17;7.67;;;5.70;99.90;;;;;;5063513;28;20092;-58
2022/01/27 10:15:11;;;;;;;15.88;7.85;;;5.70;99.90;;;;;;5081915;28;20265;-54
2022/01/27 10:17:39;;;;;;;14.60;8.00;;;5.70;99.90;;;;;;5081637;28;20120;-53
2022/01/27 10:20:16;;;;;;;13.98;7.97;;;5.80;99.90;;;;;;5081415;28;20081;-54
2022/01/27 10:22:42;;;;;;;14.88;8.75;;;5.80;99.90;;;;;;5082103;28;20023;-53
2022/01/27 10:25:10;;;;;;;11.82;7.65;;;5.80;99.90;;;;;;5081803;28;20020;-58
2022/01/27 10:32:54;;;;;;;12.45;7.90;;;5.90;99.90;;;;;;5081484;28;20028;-54
2022/01/27 10:35:23;;;;;;;13.88;8.02;;;5.90;99.90;;;;;;5081206;28;20492;-55
2022/01/27 10:38:00;;;;;;;13.25;8.32;;;6.00;99.90;;;;;;5081106;28;20063;-54
2022/01/27 10:40:38;;;;;;;15.27;8.38;;;6.00;99.90;;;;;;5081438;28;20028;-56
2022/01/27 10:43:14;;;;;;;15.35;8.23;;;6.00;99.90;;;;;;5063077;28;20016;-56
2022/01/27 10:46:06;;;;;;;14.80;8.02;;;6.10;99.90;;;;;;5064140;28;20027;-57
2022/01/27 10:48:34;;;;;;;13.80;7.97;;;6.10;99.90;;;;;;5082233;28;20020;-57
2022/01/27 10:53:49;;;;;;;15.65;8.68;;;6.30;99.90;;;;;;5081445;28;20107;-54
2022/01/27 10:56:24;;;;;;;23.27;8.10;;;6.30;99.90;;;;;;5079901;28;20020;-54
2022/01/27 10:58:50;;;;;;;18.23;8.77;;;6.40;99.90;;;;;;5081266;28;20020;-57
2022/01/27 11:01:28;;;;;;;22.05;8.65;;;6.40;99.90;;;;;;5081623;28;20044;-56
2022/01/27 11:03:57;;;;;;;22.33;8.55;;;6.40;99.90;;;;;;5082007;28;20487;-56
2022/01/27 11:06:25;;;;;;;19.30;8.73;;;6.50;99.90;;;;;;5081926;28;20016;-55
2022/01/27 11:08:54;;;;;;;17.08;7.88;;;6.50;99.90;;;;;;5081060;28;20116;-56
2022/01/27 11:11:25;;;;;;;29.90;9.27;;;6.60;99.90;;;;;;5080421;28;20102;-56
2022/01/27 11:13:53;;;;;;;24.70;7.95;;;6.60;99.90;;;;;;5080713;28;20073;-56
2022/01/27 11:16:24;;;;;;;19.67;6.93;;;6.70;99.90;;;;;;5108364;22;20519;-56
2022/01/27 11:18:50;;;;;;;25.58;7.47;;;6.80;99.90;;;;;;5102307;27;20042;-51
2022/01/27 11:21:29;;;;;;;24.45;7.65;;;6.90;99.90;;;;;;5122267;27;20580;-52
2022/01/27 11:24:06;;;;;;;24.60;7.70;;;7.00;99.90;;;;;;5121533;27;20144;-55
2022/01/27 11:26:34;;;;;;;26.83;7.32;;;7.10;99.90;;;;;;5117061;27;20013;-54
2022/01/27 11:29:01;;;;;;;34.25;7.60;;;7.10;99.90;;;;;;5101345;28;20092;-50
2022/01/27 11:31:45;;;;;;;29.60;7.20;;;7.20;99.90;;;;;;5101260;28;20023;-54
2022/01/27 11:34:11;;;;;;;24.02;6.13;;;7.30;99.90;;;;;;5101013;28;20110;-55
2022/01/27 11:36:38;;;;;;;27.73;8.02;;;7.30;99.90;;;;;;5100778;28;20027;-55
2022/01/27 11:39:11;;;;;;;30.95;6.70;;;7.30;99.90;;;;;;5101598;28;20023;-56
2022/01/27 11:41:43;;;;;;;28.00;6.32;;;7.30;99.90;;;;;;5102044;28;20773;-53
2022/01/27 11:44:37;;;;;;;20.33;7.50;;;7.40;99.90;;;;;;5101841;28;20034;-56
2022/01/27 11:47:09;;;;;;;26.73;7.75;;;7.40;99.90;;;;;;5098297;28;20150;-54
2022/01/27 11:50:22;;;;;;;21.13;4.97;;;7.50;99.90;;;;;;5101246;28;20027;-51
2022/01/27 11:52:53;;;;;;;29.27;6.35;;;7.60;99.90;;;;;;5101727;28;20061;-57
2022/01/27 11:55:24;;;;;;;24.92;6.45;;;7.60;99.90;;;;;;5100989;28;20016;-51
2022/01/27 11:57:52;;;;;;;25.60;5.45;;;7.70;99.90;;;;;;5101299;28;20035;-52
2022/01/27 12:00:19;;;;;;;19.50;5.50;;;7.80;99.90;;;;;;5103947;28;20027;-54
2022/01/27 12:02:56;;;;;;;23.45;5.47;;;7.80;99.90;;;;;;5101690;28;20024;-54
2022/01/27 12:05:23;;;;;;;22.35;6.32;;;7.90;99.90;;;;;;5083037;28;20016;-54
2022/01/27 12:08:14;;;;;;;23.85;4.63;;;7.90;99.90;;;;;;5101103;28;20028;-54
2022/01/27 12:10:53;;;;;;;19.15;4.90;;;7.90;99.90;;;;;;5100702;28;20106;-54
2022/01/27 12:13:31;;;;;;;24.40;4.72;;;7.90;99.90;;;;;;5102031;28;20020;-56
2022/01/27 12:19:11;;;;;;;18.77;4.32;;;8.10;99.90;;;;;;5102764;28;20588;-52
2022/01/27 12:21:41;;;;;;;17.50;4.78;;;8.20;99.90;;;;;;5082707;28;20016;-52
2022/01/27 12:24:13;;;;;;;21.80;4.95;;;8.20;99.90;;;;;;5099994;28;20016;-56
2022/01/27 12:26:47;;;;;;;23.27;4.65;;;8.20;99.90;;;;;;5100323;28;20046;-55
2022/01/27 12:29:24;;;;;;;26.00;5.90;;;8.20;99.90;;;;;;5082284;28;20047;-58
2022/01/27 12:31:50;;;;;;;22.92;4.15;;;8.20;99.90;;;;;;5081617;28;20057;-53
2022/01/27 12:34:16;;;;;;;19.55;4.45;;;8.10;99.90;;;;;;5100916;28;20068;-54
2022/01/27 12:36:56;;;;;;;15.95;3.90;;;8.10;99.90;;;;;;5081170;28;20065;-51
2022/01/27 12:39:24;;;;;;;19.58;4.82;;;8.10;99.90;;;;;;5099705;28;20015;-57
2022/01/27 12:41:54;;;;;;;18.83;4.25;;;8.10;99.90;;;;;;5098832;28;20495;-57
2022/01/27 12:44:25;;;;;;;22.10;4.50;;;8.10;99.90;;;;;;5100603;28;20510;-54
2022/01/27 12:47:09;;;;;;;20.75;3.95;;;8.10;99.90;;;;;;5099837;28;20165;-56
2022/01/27 12:49:39;;;;;;;14.80;4.45;;;8.20;99.90;;;;;;5100670;28;20099;-57
2022/01/27 12:52:07;;;;;;;23.40;4.60;;;8.20;99.90;;;;;;5080787;28;20020;-55
2022/01/27 12:54:33;;;;;;;25.05;5.03;;;8.20;99.90;;;;;;5102841;28;20099;-52
2022/01/27 12:56:59;;;;;;;13.00;3.53;;;8.20;99.90;;;;;;5081859;28;20032;-61
2022/01/27 12:59:33;;;;;;;22.73;5.22;;;8.10;99.90;;;;;;5081026;28;20036;-52
2022/01/27 13:02:04;;;;;;;24.45;4.93;;;8.20;99.90;;;;;;5101897;28;20020;-57
2022/01/27 13:04:30;;;;;;;27.95;4.40;;;8.20;99.90;;;;;;5101110;28;20024;-59
2022/01/27 13:06:57;;;;;;;23.23;4.25;;;8.10;99.90;;;;;;5101467;28;20008;-56
2022/01/27 13:09:23;;;;;;;18.65;3.85;;;8.10;99.90;;;;;;5102931;28;20043;-53
2022/01/27 13:11:52;;;;;;;17.63;4.60;;;8.10;99.90;;;;;;5103386;28;20478;-57
2022/01/27 13:14:18;;;;;;;16.95;4.38;;;8.10;99.90;;;;;;5102405;28;20024;-57
2022/01/27 13:16:49;;;;;;;12.25;3.42;;;8.00;99.90;;;;;;5102371;28;20451;-57
2022/01/27 13:19:25;;;;;;;19.23;3.58;;;7.90;99.90;;;;;;5101589;28;20027;-53
2022/01/27 13:22:02;;;;;;;18.67;2.95;;;7.60;99.90;;;;;;5102987;28;20422;-53
2022/01/27 13:24:31;;;;;;;13.73;3.38;;;7.40;99.90;;;;;;5101643;28;20062;-55
2022/01/27 13:27:12;;;;;;;11.77;4.13;;;7.30;99.90;;;;;;5085853;28;20100;-53
2022/01/27 13:29:42;;;;;;;12.57;2.75;;;7.30;99.90;;;;;;5079481;28;20372;-54
2022/01/27 13:32:10;;;;;;;14.85;3.45;;;7.20;99.90;;;;;;5101505;28;20028;-57
2022/01/27 13:34:46;;;;;;;15.25;2.60;;;7.20;99.90;;;;;;5102671;28;20024;-53
2022/01/27 13:37:12;;;;;;;12.45;3.70;;;7.20;99.90;;;;;;5102940;28;20053;-58
2022/01/27 13:42:19;;;;;;;18.25;3.55;;;7.20;99.90;;;;;;5100213;28;20031;-54
2022/01/27 13:44:56;;;;;;;14.45;4.18;;;7.30;99.90;;;;;;5102702;28;20055;-53
2022/01/27 13:47:33;;;;;;;17.58;3.58;;;7.30;99.90;;;;;;5100720;28;20043;-58
2022/01/27 13:50:10;;;;;;;22.92;4.95;;;7.30;99.90;;;;;;5100861;28;20033;-58
2022/01/27 13:52:50;;;;;;;17.58;4.45;;;7.30;99.90;;;;;;5102132;28;20471;-53
2022/01/27 13:55:21;;;;;;;19.17;4.47;;;7.30;99.90;;;;;;5104081;28;20024;-53